PATK/TKA METAR and TAF weather

Enter ICAO airport designator
Station Type Date Time Source
PATK METAR 2021/07/24 20:53 UTC NOAA

PATK 242053Z 22003KT 10SM SCT060 OVC085 17/12 A3006 RMK AO2 SLP179 T01670117 51004


Station Type Date Time Source
PATK Decoded METAR 2021/07/24 20:53 UTC NOAA

TALKEETNA AIRPORT, AK, United States (PATK) 62-19N 150-06W 109M
Jul 24, 2021 - 04:53 PM EDT / 2021.07.24 2053 UTC
Wind: from the SW (220 degrees) at 3 MPH (3 KT):0
Visibility: 10 mile(s):0
Sky conditions: overcast
Temperature: 62.1 F (16.7 C)
Dew Point: 53.1 F (11.7 C)
Relative Humidity: 72%
Pressure (altimeter): 30.06 in. Hg (1017 hPa)
Pressure tendency: 0.01 inches (0.4 hPa) higher than three hours ago
ob: PATK 242053Z 22003KT 10SM SCT060 OVC085 17/12 A3006 RMK AO2 SLP179 T01670117 51004
cycle: 21

Station Type Date Time Source
PATK TAF 2021/07/24 18:30 UTC NOAA

TAF PATK 241729Z 2418/2518 18005KT P6SM VCSH FEW025 OVC040
FM251400 VRB02KT P6SM OVC015

Example: see airport list